Time;durP1;ratioP1;P1;durP2;ratioP2;P2;SDS_P1;SDS_P2;PMS_P1;PMS_P2;Temp;Humidity;BMP_temperature;BMP_pressure;BME280_temperature;BME280_humidity;BME280_pressure;Samples;Min_cycle;Max_cycle;Signal;HPM_P1;HPM_P2
2022/01/26 00:06:37;;;;;;;57.70;25.42;;;-2.90;99.90;;;;;;5066348;28;20091;-73
2022/01/26 00:09:04;;;;;;;59.88;26.75;;;-2.90;99.90;;;;;;5053519;28;20044;-73
2022/01/26 00:11:33;;;;;;;64.75;27.65;;;-2.80;99.90;;;;;;5071566;28;20040;-73
2022/01/26 00:14:01;;;;;;;55.72;25.90;;;-2.80;99.90;;;;;;5070373;28;20029;-73
2022/01/26 00:16:44;;;;;;;63.17;27.95;;;-2.80;99.90;;;;;;5057129;28;20052;-73
2022/01/26 00:19:26;;;;;;;55.35;26.15;;;-2.80;99.90;;;;;;5054327;28;20094;-74
2022/01/26 00:21:53;;;;;;;63.95;28.58;;;-2.80;99.90;;;;;;5070085;28;20023;-72
2022/01/26 00:29:31;;;;;;;59.03;28.15;;;-2.80;99.90;;;;;;5071265;28;20025;-73
2022/01/26 00:40:08;;;;;;;;;;;-2.70;99.90;;;;;;5071373;28;20444;-72
2022/01/26 00:42:38;;;;;;;57.13;24.23;;;-2.80;99.90;;;;;;5070704;28;19927;-73
2022/01/26 00:45:08;;;;;;;69.55;28.33;;;-2.70;99.90;;;;;;5061588;28;20040;-72
2022/01/26 00:47:35;;;;;;;61.17;27.98;;;-2.70;99.90;;;;;;5071541;28;20094;-73
2022/01/26 00:50:05;;;;;;;67.70;27.95;;;-2.70;99.90;;;;;;5070912;28;20055;-73
2022/01/26 00:52:42;;;;;;;61.50;27.33;;;-2.70;99.90;;;;;;5062142;28;20029;-73
2022/01/26 00:55:10;;;;;;;;;;;-2.60;99.90;;;;;;5061263;28;20032;-72
2022/01/26 00:57:36;;;;;;;50.60;23.85;;;-2.60;99.90;;;;;;5069960;28;19919;-73
2022/01/26 01:00:04;;;;;;;67.53;26.67;;;-2.60;99.90;;;;;;5069657;28;20028;-72
2022/01/26 01:02:32;;;;;;;57.78;25.02;;;-2.60;99.90;;;;;;5053097;28;20104;-72
2022/01/26 01:05:00;;;;;;;65.32;27.13;;;-2.60;99.90;;;;;;5058778;28;20035;-71
2022/01/26 01:07:26;;;;;;;58.92;26.23;;;-2.60;99.90;;;;;;5069480;28;20040;-73
2022/01/26 01:09:52;;;;;;;61.35;27.30;;;-2.60;99.90;;;;;;5068137;28;20093;-73
2022/01/26 01:12:18;;;;;;;59.43;26.53;;;-2.60;99.90;;;;;;5070545;28;20484;-73
2022/01/26 01:14:44;;;;;;;62.53;27.83;;;-2.50;99.90;;;;;;5070417;28;20115;-73
2022/01/26 01:17:21;;;;;;;57.92;25.83;;;-2.50;99.90;;;;;;5070724;28;20020;-72
2022/01/26 01:20:04;;;;;;;60.25;27.63;;;-2.60;99.90;;;;;;5065535;28;20434;-72
2022/01/26 01:28:30;;;;;;;42.53;18.50;;;-2.50;99.90;;;;;;5059672;28;20079;-72
2022/01/26 01:31:02;;;;;;;56.10;24.70;;;-2.50;99.90;;;;;;5067298;28;20112;-73
2022/01/26 01:33:32;;;;;;;61.97;26.10;;;-2.50;99.90;;;;;;5062021;28;20029;-72
2022/01/26 01:36:00;;;;;;;57.72;23.95;;;-2.50;99.90;;;;;;5067724;28;20032;-72
2022/01/26 01:38:28;;;;;;;58.45;26.30;;;-2.50;99.90;;;;;;5070329;28;20025;-73
2022/01/26 01:40:55;;;;;;;56.08;24.98;;;-2.40;99.90;;;;;;5068786;28;20044;-72
2022/01/26 01:43:22;;;;;;;;;;;-2.40;99.90;;;;;;5065071;28;20421;-73
2022/01/26 01:45:51;;;;;;;63.60;26.00;;;-2.40;99.90;;;;;;5066326;28;19908;-74
2022/01/26 01:48:21;;;;;;;53.17;24.40;;;-2.30;99.90;;;;;;5068627;28;20286;-72
2022/01/26 01:50:50;;;;;;;58.00;26.17;;;-2.40;99.90;;;;;;5069647;28;20039;-72
2022/01/26 01:53:17;;;;;;;59.92;25.63;;;-2.30;99.90;;;;;;5057255;28;20431;-73
2022/01/26 01:55:50;;;;;;;63.33;26.33;;;-2.30;99.90;;;;;;5065440;28;20396;-73
2022/01/26 01:58:18;;;;;;;54.72;24.30;;;-2.40;99.90;;;;;;5068538;28;20547;-73
2022/01/26 02:00:44;;;;;;;59.45;26.17;;;-2.30;99.90;;;;;;5068632;28;20103;-72
2022/01/26 02:03:10;;;;;;;52.70;25.23;;;-2.30;99.90;;;;;;5048200;28;20041;-73
2022/01/26 02:05:36;;;;;;;55.95;25.05;;;-2.30;99.90;;;;;;5064538;28;20115;-73
2022/01/26 02:08:03;;;;;;;52.67;24.13;;;-2.30;99.90;;;;;;5068486;28;20052;-73
2022/01/26 02:10:31;;;;;;;60.90;26.17;;;-2.30;99.90;;;;;;5068509;28;20045;-73
2022/01/26 02:13:03;;;;;;;59.20;26.52;;;-2.20;99.90;;;;;;5069800;28;20021;-73
2022/01/26 02:15:44;;;;;;;54.75;24.75;;;-2.20;99.90;;;;;;5069417;28;20036;-73
2022/01/26 03:05:00;;;;;;;43.63;20.55;;;-1.70;99.90;;;;;;5065430;28;20137;-72
2022/01/26 03:08:03;;;;;;;46.08;21.65;;;-1.60;99.90;;;;;;5073118;28;20031;-72
2022/01/26 03:13:07;;;;;;;43.22;20.05;;;-1.50;99.90;;;;;;5064563;28;20431;-72
2022/01/26 03:15:39;;;;;;;48.88;21.27;;;-1.50;99.90;;;;;;5066935;28;20032;-73
2022/01/26 03:20:52;;;;;;;48.63;22.52;;;-1.50;99.90;;;;;;5072219;28;20039;-72
2022/01/26 03:36:46;;;;;;;45.85;21.35;;;-1.30;99.90;;;;;;5072689;28;20499;-72
2022/01/26 03:39:16;;;;;;;45.88;20.88;;;-1.30;99.90;;;;;;5072255;28;20032;-74
2022/01/26 03:41:46;;;;;;;48.75;22.05;;;-1.30;99.90;;;;;;5054654;28;20033;-72
2022/01/26 03:44:13;;;;;;;47.50;21.60;;;-1.30;99.90;;;;;;5055507;28;20068;-73
2022/01/26 03:46:39;;;;;;;45.42;22.38;;;-1.30;99.90;;;;;;5072704;28;20032;-72
2022/01/26 03:49:06;;;;;;;43.28;21.40;;;-1.30;99.90;;;;;;5071566;28;20068;-73
2022/01/26 03:51:33;;;;;;;49.28;21.05;;;-1.30;99.90;;;;;;5054326;28;20519;-72
2022/01/26 03:53:59;;;;;;;;;;;-1.30;99.90;;;;;;5052291;28;20029;-73
2022/01/26 03:56:25;;;;;;;47.90;19.60;;;-1.30;99.90;;;;;;5072298;28;19912;-72
2022/01/26 03:58:51;;;;;;;51.15;23.23;;;-1.30;99.90;;;;;;5072589;28;20032;-72
2022/01/26 04:01:16;;;;;;;45.97;21.17;;;-1.30;99.90;;;;;;5058200;28;20033;-73
2022/01/26 04:03:42;;;;;;;45.00;20.50;;;-1.30;99.90;;;;;;5052467;28;20114;-72
2022/01/26 04:06:08;;;;;;;44.40;21.13;;;-1.30;99.90;;;;;;5070890;28;20415;-72
2022/01/26 04:08:36;;;;;;;48.30;21.48;;;-1.30;99.90;;;;;;5071673;28;20043;-73
2022/01/26 04:11:31;;;;;;;51.83;22.38;;;-1.30;99.90;;;;;;5071910;28;20086;-73
2022/01/26 04:13:58;;;;;;;48.75;21.33;;;-1.30;99.90;;;;;;5071774;28;20044;-73
2022/01/26 04:16:24;;;;;;;45.97;21.63;;;-1.30;99.90;;;;;;5070099;28;20028;-74
2022/01/26 04:18:52;;;;;;;52.72;23.90;;;-1.30;99.90;;;;;;5051984;28;20457;-73
2022/01/26 04:26:22;;;;;;;51.25;23.23;;;-1.40;99.90;;;;;;5051305;28;20025;-73
2022/01/26 04:28:54;;;;;;;48.45;24.65;;;-1.40;99.90;;;;;;5067166;28;20375;-73
2022/01/26 04:31:21;;;;;;;52.22;23.33;;;-1.40;99.90;;;;;;5051357;28;20087;-73
2022/01/26 04:33:47;;;;;;;49.15;23.67;;;-1.50;99.90;;;;;;5051701;28;20461;-73
2022/01/26 04:36:18;;;;;;;56.28;24.17;;;-1.50;99.90;;;;;;5076311;28;20022;-72
2022/01/26 04:38:50;;;;;;;53.13;23.83;;;-1.40;99.90;;;;;;5050279;28;20124;-73
2022/01/26 04:43:47;;;;;;;47.45;22.73;;;-1.50;99.90;;;;;;5051670;28;20095;-72
2022/01/26 04:46:12;;;;;;;52.83;22.55;;;-1.50;99.90;;;;;;5050466;28;20395;-72
2022/01/26 04:48:38;;;;;;;57.27;24.10;;;-1.50;99.90;;;;;;5051549;28;20045;-73
2022/01/26 04:51:04;;;;;;;47.40;22.77;;;-1.50;99.90;;;;;;5069484;28;20064;-72
2022/01/26 04:53:29;;;;;;;46.10;20.83;;;-1.60;99.90;;;;;;5065646;28;20384;-73
2022/01/26 04:55:55;;;;;;;47.60;21.67;;;-1.60;99.90;;;;;;5068049;28;20040;-72
2022/01/26 04:58:21;;;;;;;52.07;22.27;;;-1.60;99.90;;;;;;5071473;28;20024;-72
2022/01/26 05:00:46;;;;;;;51.43;23.30;;;-1.60;99.90;;;;;;5070780;28;20125;-72
2022/01/26 05:03:12;;;;;;;52.37;22.00;;;-1.60;99.90;;;;;;5070122;28;20077;-71
2022/01/26 05:05:38;;;;;;;51.60;21.73;;;-1.60;99.90;;;;;;5070534;28;20476;-73
2022/01/26 05:08:04;;;;;;;52.87;20.67;;;-1.60;99.90;;;;;;5069731;28;20043;-72
2022/01/26 05:10:30;;;;;;;45.95;20.10;;;-1.60;99.90;;;;;;5066081;28;20094;-72
2022/01/26 05:12:55;;;;;;;48.83;20.70;;;-1.60;99.90;;;;;;5050499;28;20082;-72
2022/01/26 05:15:23;;;;;;;45.47;18.27;;;-1.70;99.90;;;;;;5062868;28;20282;-73
2022/01/26 05:17:49;;;;;;;45.40;19.73;;;-1.60;99.90;;;;;;5070388;28;20025;-74
2022/01/26 05:20:16;;;;;;;45.78;19.45;;;-1.60;99.90;;;;;;5065187;28;20048;-73
2022/01/26 05:22:44;;;;;;;45.33;19.63;;;-1.60;99.90;;;;;;5050547;28;20041;-73
2022/01/26 05:25:10;;;;;;;47.78;21.13;;;-1.70;99.90;;;;;;5060221;28;20040;-72
2022/01/26 05:27:36;;;;;;;43.65;20.58;;;-1.70;99.90;;;;;;5070928;28;20459;-74
2022/01/26 05:30:03;;;;;;;53.67;20.83;;;-1.70;99.90;;;;;;5070279;28;20040;-72
2022/01/26 05:32:29;;;;;;;48.95;19.42;;;-1.80;99.90;;;;;;5070401;28;20032;-73
2022/01/26 05:34:54;;;;;;;52.90;21.10;;;-1.90;99.90;;;;;;5068508;28;20028;-73
2022/01/26 05:37:20;;;;;;;50.10;20.70;;;-1.90;99.90;;;;;;5070020;28;20376;-75
2022/01/26 05:39:46;;;;;;;46.37;19.03;;;-1.90;99.90;;;;;;5057790;28;20028;-73
2022/01/26 05:42:11;;;;;;;53.80;20.50;;;-2.00;99.90;;;;;;5070187;28;20031;-73
2022/01/26 05:44:37;;;;;;;47.90;20.73;;;-2.00;99.90;;;;;;5068529;28;20502;-73
2022/01/26 05:47:06;;;;;;;48.35;19.10;;;-2.00;99.90;;;;;;5069059;28;20993;-73
2022/01/26 05:49:32;;;;;;;39.70;19.42;;;-1.90;99.90;;;;;;5055696;28;20074;-72
2022/01/26 05:51:57;;;;;;;45.25;18.95;;;-2.00;99.90;;;;;;5069846;28;20103;-73
2022/01/26 05:54:23;;;;;;;48.07;20.47;;;-2.00;99.90;;;;;;5069818;28;20036;-73
2022/01/26 05:56:49;;;;;;;40.53;18.27;;;-2.00;99.90;;;;;;5067926;28;20021;-73
2022/01/26 05:59:19;;;;;;;43.25;16.83;;;-2.10;99.90;;;;;;5068167;28;20024;-74
2022/01/26 06:01:45;;;;;;;44.78;20.08;;;-2.00;99.90;;;;;;5068405;28;20086;-73
2022/01/26 06:04:11;;;;;;;43.10;17.52;;;-2.10;99.90;;;;;;5069662;28;20039;-73
2022/01/26 06:06:36;;;;;;;47.83;18.98;;;-2.10;99.90;;;;;;5056148;28;20029;-73
2022/01/26 06:09:03;;;;;;;48.27;20.33;;;-2.10;99.90;;;;;;5072509;28;20032;-74
2022/01/26 06:11:28;;;;;;;48.53;18.13;;;-2.10;99.90;;;;;;5068722;28;20064;-73
2022/01/26 06:13:55;;;;;;;38.30;18.70;;;-2.10;99.90;;;;;;5068279;28;20072;-73
2022/01/26 06:16:21;;;;;;;44.83;18.83;;;-2.10;99.90;;;;;;5070400;28;20499;-73
2022/01/26 06:18:47;;;;;;;41.78;18.50;;;-2.00;99.90;;;;;;5070029;28;20029;-73
2022/01/26 06:21:13;;;;;;;44.55;18.30;;;-2.10;99.90;;;;;;5058465;28;20550;-73
2022/01/26 06:23:39;;;;;;;43.20;19.80;;;-2.10;99.90;;;;;;5049899;28;20060;-73
2022/01/26 06:26:05;;;;;;;45.40;18.17;;;-2.10;99.90;;;;;;5066557;28;20257;-73
2022/01/26 06:28:31;;;;;;;43.95;18.85;;;-2.10;99.90;;;;;;5069924;28;20028;-73
2022/01/26 06:31:00;;;;;;;44.93;19.07;;;-2.10;99.90;;;;;;5064116;28;20039;-73
2022/01/26 06:33:27;;;;;;;51.25;19.02;;;-2.10;99.90;;;;;;5049678;28;20242;-73
2022/01/26 06:35:55;;;;;;;50.45;19.70;;;-2.10;99.90;;;;;;5064640;28;20036;-75
2022/01/26 06:38:24;;;;;;;46.53;18.52;;;-2.10;99.90;;;;;;5064268;28;20074;-73
2022/01/26 06:40:50;;;;;;;39.10;19.10;;;-2.10;99.90;;;;;;5066088;28;20066;-73
2022/01/26 06:43:16;;;;;;;43.33;19.20;;;-2.20;99.90;;;;;;5069185;28;20027;-73
2022/01/26 06:45:48;;;;;;;44.07;18.70;;;-2.20;99.90;;;;;;5067317;28;20441;-74
2022/01/26 06:50:55;;;;;;;45.38;18.63;;;-2.20;99.90;;;;;;5066156;28;20575;-72
2022/01/26 06:53:21;;;;;;;42.67;18.85;;;-2.20;99.90;;;;;;5069117;28;20373;-73
2022/01/26 06:55:47;;;;;;;50.03;18.58;;;-2.20;99.90;;;;;;5069163;28;20041;-73
2022/01/26 06:58:13;;;;;;;43.27;19.37;;;-2.20;99.90;;;;;;5056425;28;20021;-74
2022/01/26 07:00:39;;;;;;;48.27;19.03;;;-2.10;99.90;;;;;;5064228;28;20258;-73
2022/01/26 07:03:04;;;;;;;42.50;18.02;;;-2.10;99.90;;;;;;5067718;28;20043;-72
2022/01/26 07:05:30;;;;;;;40.67;16.87;;;-2.10;99.90;;;;;;5067400;28;20087;-73
2022/01/26 07:07:56;;;;;;;39.77;16.80;;;-2.10;99.90;;;;;;5068721;28;20441;-73
2022/01/26 07:10:22;;;;;;;45.70;19.08;;;-2.10;99.90;;;;;;5066408;28;20484;-73
2022/01/26 07:12:47;;;;;;;43.22;17.83;;;-2.10;99.90;;;;;;5049114;28;20029;-72
2022/01/26 07:24:08;;;;;;;43.78;18.02;;;-2.00;99.90;;;;;;5066080;28;20047;-73
2022/01/26 07:26:34;;;;;;;33.43;13.03;;;-2.10;99.90;;;;;;5066243;28;20041;-73
2022/01/26 07:29:07;;;;;;;36.97;16.83;;;-2.10;99.90;;;;;;5052913;28;20385;-73
2022/01/26 07:31:34;;;;;;;40.45;17.17;;;-2.00;99.90;;;;;;5055365;28;20163;-73
2022/01/26 07:34:00;;;;;;;39.42;16.67;;;-2.00;99.90;;;;;;5058363;28;20039;-74
2022/01/26 07:36:26;;;;;;;37.80;15.73;;;-2.00;99.90;;;;;;5066905;28;20427;-64
2022/01/26 07:38:54;;;;;;;37.28;16.23;;;-1.90;99.90;;;;;;5066587;28;20073;-67
2022/01/26 07:41:21;;;;;;;36.05;16.15;;;-1.90;99.90;;;;;;5065707;28;20503;-66
2022/01/26 07:43:47;;;;;;;37.42;16.15;;;-1.80;99.90;;;;;;5066000;28;20119;-65
2022/01/26 07:46:13;;;;;;;30.67;14.85;;;-1.80;99.90;;;;;;5064577;28;20724;-64
2022/01/26 07:48:40;;;;;;;33.50;13.88;;;-1.70;99.90;;;;;;5086457;28;20096;-64
2022/01/26 07:51:06;;;;;;;31.02;14.90;;;-1.70;99.90;;;;;;5069327;28;20045;-64
2022/01/26 07:53:33;;;;;;;35.42;16.25;;;-1.60;99.90;;;;;;5072293;28;20025;-64
2022/01/26 07:55:58;;;;;;;35.65;16.05;;;-1.50;99.90;;;;;;5071760;28;20060;-64
2022/01/26 07:58:25;;;;;;;25.92;12.02;;;-1.40;99.90;;;;;;5069174;28;20060;-67
2022/01/26 08:00:51;;;;;;;34.03;15.60;;;-1.30;99.90;;;;;;5064811;28;20036;-66
2022/01/26 08:03:17;;;;;;;37.13;15.02;;;-1.30;99.90;;;;;;5067118;28;20028;-67
2022/01/26 08:05:44;;;;;;;34.88;14.88;;;-1.20;99.90;;;;;;5069575;28;20032;-66
2022/01/26 08:08:10;;;;;;;34.75;14.13;;;-1.10;99.90;;;;;;5067040;28;20105;-65
2022/01/26 08:10:36;;;;;;;26.40;12.63;;;-1.10;99.90;;;;;;5062454;28;20439;-65
2022/01/26 08:13:02;;;;;;;32.97;13.40;;;-1.10;99.90;;;;;;5067577;28;20055;-66
2022/01/26 08:15:28;;;;;;;;;;;-1.10;99.90;;;;;;5066600;28;20032;-66
2022/01/26 08:17:55;;;;;;;27.70;10.98;;;-1.10;99.90;;;;;;5058465;28;19916;-66
2022/01/26 08:20:22;;;;;;;;;;;-1.00;99.90;;;;;;5058802;28;22020;-68
2022/01/26 08:22:47;;;;;;;27.17;11.33;;;-1.00;99.90;;;;;;5059825;28;19908;-64
2022/01/26 08:25:13;;;;;;;35.23;12.77;;;-0.90;99.90;;;;;;5064560;28;20036;-64
2022/01/26 08:27:47;;;;;;;26.77;11.13;;;-0.90;99.90;;;;;;5062555;28;20056;-64
2022/01/26 08:30:17;;;;;;;26.13;12.55;;;-0.80;99.90;;;;;;5062751;28;20039;-64
2022/01/26 08:32:43;;;;;;;24.45;12.43;;;-0.80;99.90;;;;;;5065326;28;20127;-64
2022/01/26 08:35:09;;;;;;;27.80;12.27;;;-0.70;99.90;;;;;;5063236;28;20044;-64
2022/01/26 08:37:35;;;;;;;28.85;11.50;;;-0.60;99.90;;;;;;5067990;28;20032;-67
2022/01/26 08:40:02;;;;;;;23.90;11.10;;;-0.70;99.90;;;;;;5063045;28;20768;-64
2022/01/26 08:42:28;;;;;;;27.05;10.98;;;-0.70;99.90;;;;;;5064495;28;20159;-63
2022/01/26 08:44:54;;;;;;;28.20;12.03;;;-0.70;99.90;;;;;;5063870;28;20450;-63
2022/01/26 08:47:19;;;;;;;22.67;11.38;;;-0.70;99.90;;;;;;5064371;28;20028;-64
2022/01/26 08:49:45;;;;;;;21.08;9.73;;;-0.70;99.90;;;;;;5055744;28;20838;-66
2022/01/26 08:52:11;;;;;;;24.77;10.97;;;-0.70;99.90;;;;;;5065191;28;20036;-63
2022/01/26 08:54:37;;;;;;;22.33;10.60;;;-0.60;99.90;;;;;;5066956;28;20105;-64
2022/01/26 08:57:04;;;;;;;23.90;11.27;;;-0.70;99.90;;;;;;5064316;28;21272;-64
2022/01/26 08:59:29;;;;;;;24.63;10.70;;;-0.70;99.90;;;;;;5096857;28;20021;-64
2022/01/26 09:01:55;;;;;;;24.07;10.43;;;-0.70;99.90;;;;;;5066068;28;20016;-64
2022/01/26 09:04:21;;;;;;;23.73;9.77;;;-0.60;99.90;;;;;;5065375;28;20454;-64
2022/01/26 09:06:52;;;;;;;17.33;8.57;;;-0.60;99.90;;;;;;5065604;28;20042;-63
2022/01/26 09:09:22;;;;;;;22.50;10.13;;;-0.60;99.90;;;;;;5067089;28;20032;-65
2022/01/26 09:11:53;;;;;;;21.88;10.93;;;-0.50;99.90;;;;;;5059277;28;20035;-65
2022/01/26 09:14:22;;;;;;;24.92;11.15;;;-0.50;99.90;;;;;;5062336;28;20191;-64
2022/01/26 09:16:52;;;;;;;23.17;10.40;;;-0.50;99.90;;;;;;5058471;28;20025;-65
2022/01/26 09:19:26;;;;;;;25.13;10.98;;;-0.50;99.90;;;;;;5066605;28;20025;-65
2022/01/26 09:21:54;;;;;;;20.88;10.40;;;-0.60;99.90;;;;;;5062509;28;20017;-65
2022/01/26 09:24:20;;;;;;;25.65;10.68;;;-0.50;99.90;;;;;;5064972;28;20138;-66
2022/01/26 09:26:46;;;;;;;37.40;20.38;;;-0.50;99.90;;;;;;5061000;28;20053;-66
2022/01/26 09:29:12;;;;;;;20.00;10.30;;;-0.50;99.90;;;;;;5064268;28;20068;-64
2022/01/26 09:31:37;;;;;;;23.07;10.17;;;-0.50;99.90;;;;;;5063420;28;20434;-65
2022/01/26 09:34:03;;;;;;;23.73;10.47;;;-0.50;99.90;;;;;;5060287;28;20028;-66
2022/01/26 09:36:30;;;;;;;25.50;10.67;;;-0.50;99.90;;;;;;5063349;28;20060;-67
2022/01/26 09:38:56;;;;;;;20.02;9.38;;;-0.50;99.90;;;;;;5067278;28;20033;-66
2022/01/26 09:41:22;;;;;;;19.17;9.45;;;-0.50;99.90;;;;;;5067454;28;20033;-66
2022/01/26 09:43:49;;;;;;;21.17;9.68;;;-0.50;99.90;;;;;;5064225;28;20016;-65
2022/01/26 09:46:14;;;;;;;24.77;10.35;;;-0.50;99.90;;;;;;5066776;28;20111;-65
2022/01/26 09:48:42;;;;;;;20.80;9.87;;;-0.50;99.90;;;;;;5065931;28;20183;-66
2022/01/26 09:51:12;;;;;;;24.02;10.15;;;-0.50;99.90;;;;;;5065256;28;20051;-66
2022/01/26 09:53:38;;;;;;;20.23;9.52;;;-0.50;99.90;;;;;;5067641;28;20368;-64
2022/01/26 09:56:04;;;;;;;21.77;10.60;;;-0.50;99.90;;;;;;5067350;28;20036;-64
2022/01/26 09:58:32;;;;;;;24.02;10.60;;;-0.50;99.90;;;;;;5059930;28;20460;-64
2022/01/26 10:01:00;;;;;;;19.63;10.18;;;-0.50;99.90;;;;;;5065665;28;20107;-63
2022/01/26 10:03:31;;;;;;;36.42;16.67;;;-0.40;99.90;;;;;;5060693;28;20036;-69
2022/01/26 10:05:58;;;;;;;23.17;11.07;;;-0.40;99.90;;;;;;5062754;28;20065;-66
2022/01/26 10:19:04;;;;;;;20.35;9.18;;;-0.50;99.90;;;;;;5066725;28;20460;-65
2022/01/26 10:21:30;;;;;;;22.83;10.30;;;-0.50;99.90;;;;;;5063393;28;20024;-66
2022/01/26 10:24:08;;;;;;;23.83;11.30;;;-0.40;99.90;;;;;;5063111;28;20043;-64
2022/01/26 10:26:34;;;;;;;21.17;9.77;;;-0.10;99.90;;;;;;5045479;28;20059;-66
2022/01/26 10:29:02;;;;;;;16.17;8.43;;;0.00;99.90;;;;;;5060754;28;20766;-66
2022/01/26 10:31:33;;;;;;;19.40;8.80;;;-0.10;99.90;;;;;;5062928;28;20516;-64
2022/01/26 10:34:09;;;;;;;21.52;10.20;;;-0.10;99.90;;;;;;5065449;28;20033;-66
2022/01/26 10:36:57;;;;;;;17.83;8.35;;;-0.10;99.90;;;;;;5063393;28;20062;-64
2022/01/26 10:39:45;;;;;;;23.23;9.63;;;-0.20;99.90;;;;;;5065747;28;20469;-66
2022/01/26 10:42:17;;;;;;;15.77;7.68;;;0.00;99.90;;;;;;5067409;28;20111;-63
2022/01/26 10:45:11;;;;;;;20.02;7.63;;;0.00;99.90;;;;;;5064497;28;20033;-63
2022/01/26 10:47:41;;;;;;;16.20;8.18;;;0.10;99.90;;;;;;5071609;28;20032;-63
2022/01/26 10:53:16;;;;;;;17.55;7.82;;;0.20;99.90;;;;;;5069006;28;20475;-63
2022/01/26 10:55:43;;;;;;;18.25;7.63;;;0.20;99.90;;;;;;5071621;28;20053;-63
2022/01/26 10:58:09;;;;;;;14.40;7.50;;;0.20;99.90;;;;;;5061195;28;20036;-64
2022/01/26 11:00:38;;;;;;;17.00;7.70;;;0.30;99.90;;;;;;5067976;28;20025;-65
2022/01/26 11:03:05;;;;;;;15.40;7.35;;;0.30;99.90;;;;;;5066768;28;20537;-64
2022/01/26 11:05:31;;;;;;;;;;;0.30;99.90;;;;;;5065635;28;20043;-64
2022/01/26 11:08:02;;;;;;;15.65;7.18;;;0.50;99.90;;;;;;5062004;28;19912;-64
2022/01/26 11:10:36;;;;;;;14.07;5.88;;;0.50;99.90;;;;;;5061809;28;20033;-63
2022/01/26 11:13:03;;;;;;;17.13;7.60;;;0.60;99.90;;;;;;5060594;28;20037;-65
2022/01/26 11:15:30;;;;;;;14.15;7.13;;;0.70;99.90;;;;;;5064057;28;20044;-64
2022/01/26 11:18:20;;;;;;;15.70;6.38;;;0.70;99.90;;;;;;5059643;28;20104;-64
2022/01/26 11:20:50;;;;;;;12.70;5.82;;;0.70;99.90;;;;;;5060201;28;20531;-65
2022/01/26 11:23:32;;;;;;;14.73;6.28;;;0.60;99.90;;;;;;5067732;28;20035;-65
2022/01/26 11:25:58;;;;;;;13.80;6.32;;;0.60;99.90;;;;;;5061243;28;20094;-65
2022/01/26 11:28:27;;;;;;;13.27;5.77;;;0.60;99.90;;;;;;5064177;28;20111;-65
2022/01/26 11:30:59;;;;;;;14.45;6.57;;;0.60;99.90;;;;;;5061835;28;20083;-66
2022/01/26 11:33:27;;;;;;;12.07;5.18;;;0.50;99.90;;;;;;5068153;28;20028;-67
2022/01/26 11:35:56;;;;;;;9.95;4.82;;;0.60;99.90;;;;;;5067668;28;20036;-65
2022/01/26 11:46:33;;;;;;;15.00;4.43;;;0.60;99.90;;;;;;5064588;28;20109;-64
2022/01/26 11:49:05;;;;;;;11.00;4.50;;;0.50;99.90;;;;;;5066645;28;20531;-65
2022/01/26 11:51:49;;;;;;;8.95;3.85;;;0.40;99.90;;;;;;5061529;28;20449;-65
2022/01/26 11:54:23;;;;;;;8.90;4.20;;;0.40;99.90;;;;;;5067867;28;20056;-64
2022/01/26 11:57:08;;;;;;;8.38;3.78;;;0.30;99.90;;;;;;5067055;28;20372;-62
2022/01/26 11:59:36;;;;;;;8.80;3.97;;;0.40;99.90;;;;;;5068218;28;20043;-65
2022/01/26 12:02:27;;;;;;;9.13;3.78;;;0.40;99.90;;;;;;5065146;28;20025;-63
2022/01/26 12:05:01;;;;;;;9.50;3.80;;;0.50;99.90;;;;;;5068500;28;20410;-64
2022/01/26 12:07:28;;;;;;;9.38;3.92;;;0.40;99.90;;;;;;5070496;28;20082;-64
2022/01/26 12:09:56;;;;;;;8.20;3.42;;;0.40;99.90;;;;;;5069740;28;20123;-67
2022/01/26 12:12:23;;;;;;;7.97;3.45;;;0.20;99.90;;;;;;5065493;28;20028;-63
2022/01/26 12:15:15;;;;;;;6.75;2.88;;;0.20;99.90;;;;;;5064070;28;20021;-63
2022/01/26 12:18:02;;;;;;;10.00;4.05;;;0.20;99.90;;;;;;5070931;28;20115;-64
2022/01/26 12:34:44;;;;;;;11.23;4.85;;;0.20;99.90;;;;;;5062522;28;20032;-65
2022/01/26 12:42:58;;;;;;;13.07;5.85;;;0.20;99.90;;;;;;5062705;28;20550;-65
2022/01/26 12:45:27;;;;;;;8.80;4.28;;;0.20;99.90;;;;;;5065360;28;20039;-62
2022/01/26 12:47:56;;;;;;;11.85;5.25;;;0.20;99.90;;;;;;5064754;28;21028;-65
2022/01/26 12:50:23;;;;;;;12.50;4.88;;;0.10;99.90;;;;;;5065453;28;20408;-64
2022/01/26 12:52:51;;;;;;;13.13;4.70;;;0.10;99.90;;;;;;5063683;28;20020;-66
2022/01/26 12:55:25;;;;;;;14.18;5.05;;;0.10;99.90;;;;;;5078781;28;20048;-64
2022/01/26 12:57:51;;;;;;;13.13;7.15;;;0.10;99.90;;;;;;5060896;28;20060;-65
2022/01/26 13:00:18;;;;;;;9.87;5.00;;;0.20;99.90;;;;;;5068152;28;20051;-67
2022/01/26 13:02:44;;;;;;;7.93;4.22;;;0.20;99.90;;;;;;5064270;28;20680;-65
2022/01/26 13:05:10;;;;;;;;;;;0.20;99.90;;;;;;5067288;28;20455;-64
2022/01/26 13:07:37;;;;;;;8.00;4.05;;;0.20;99.90;;;;;;5069202;28;20016;-64
2022/01/26 13:10:16;;;;;;;8.02;3.92;;;0.10;99.90;;;;;;5069968;28;20043;-65
2022/01/26 13:12:42;;;;;;;7.75;3.65;;;0.00;99.90;;;;;;5067948;28;20547;-63
2022/01/26 13:15:36;;;;;;;9.23;3.58;;;0.00;99.90;;;;;;5066724;28;20031;-64
2022/01/26 13:18:12;;;;;;;8.30;3.63;;;-0.10;99.90;;;;;;5069006;28;20394;-64
2022/01/26 13:36:27;;;;;;;9.45;3.40;;;-0.40;99.90;;;;;;5069058;28;20115;-63
2022/01/26 13:39:07;;;;;;;13.13;3.60;;;-0.30;99.90;;;;;;5067192;28;20138;-64
2022/01/26 13:41:55;;;;;;;7.60;3.55;;;-0.40;99.90;;;;;;5064915;28;20041;-65
2022/01/26 13:47:20;;;;;;;7.65;3.08;;;-0.40;99.90;;;;;;5067094;28;20458;-63
2022/01/26 13:57:50;;;;;;;5.15;2.55;;;-0.50;99.90;;;;;;5066243;28;20773;-64
2022/01/26 14:00:19;;;;;;;6.75;3.00;;;-0.40;99.90;;;;;;5069759;28;20024;-64
2022/01/26 14:02:45;;;;;;;27.83;14.02;;;-0.50;99.90;;;;;;5069466;28;20059;-66
2022/01/26 14:05:12;;;;;;;7.43;3.70;;;-0.50;99.90;;;;;;5068556;28;20020;-65
2022/01/26 14:07:38;;;;;;;6.38;2.95;;;-0.50;99.90;;;;;;5067948;28;20037;-66
2022/01/26 14:10:04;;;;;;;6.67;3.73;;;-0.50;99.90;;;;;;5065627;28;20425;-65
2022/01/26 14:12:35;;;;;;;6.20;3.50;;;-0.50;99.90;;;;;;5064303;28;20043;-64
2022/01/26 14:15:06;;;;;;;11.68;5.88;;;-0.60;99.90;;;;;;5065706;28;20442;-64
2022/01/26 14:18:01;;;;;;;8.57;3.17;;;-0.60;99.90;;;;;;5060950;28;20037;-68
2022/01/26 14:25:38;;;;;;;4.88;2.38;;;-0.60;99.90;;;;;;5062077;28;20538;-65
2022/01/26 14:28:08;;;;;;;5.18;2.38;;;-0.70;99.90;;;;;;5064085;28;20098;-65
2022/01/26 15:40:21;;;;;;;4.45;2.20;;;-1.10;99.90;;;;;;5071826;28;20059;-65
2022/01/26 15:43:12;;;;;;;5.88;2.90;;;-1.10;99.90;;;;;;5066702;28;20040;-65
2022/01/26 15:51:01;;;;;;;3.92;1.88;;;-1.10;99.90;;;;;;5072154;28;19923;-65
2022/01/26 16:04:30;;;;;;;4.30;2.00;;;-1.00;99.90;;;;;;5065826;28;20056;-63
2022/01/26 16:07:11;;;;;;;6.35;2.50;;;-1.00;99.90;;;;;;5075141;28;20032;-63
2022/01/26 16:21:03;;;;;;;3.75;2.20;;;-1.00;99.90;;;;;;5067283;28;20023;-64
2022/01/26 18:17:29;;;;;;;8.05;3.85;;;-0.90;99.90;;;;;;5069889;28;20031;-63
2022/01/26 18:33:07;;;;;;;7.18;3.55;;;-1.00;99.90;;;;;;5067437;28;20058;-65
2022/01/26 18:51:58;;;;;;;11.82;4.28;;;-1.10;99.90;;;;;;5069676;28;20097;-63
2022/01/26 18:54:27;;;;;;;8.20;3.25;;;-1.10;99.90;;;;;;5083240;28;20028;-63
2022/01/26 18:56:54;;;;;;;5.57;3.20;;;-1.10;99.90;;;;;;5062393;28;20028;-66
2022/01/26 18:59:22;;;;;;;7.18;2.97;;;-1.10;99.90;;;;;;5067274;28;20025;-66
2022/01/26 19:01:52;;;;;;;7.75;3.20;;;-1.20;99.90;;;;;;5052935;28;20028;-67
2022/01/26 19:04:34;;;;;;;12.70;3.53;;;-1.20;99.90;;;;;;5064058;28;20052;-64
2022/01/26 19:07:01;;;;;;;6.30;3.17;;;-1.20;99.90;;;;;;5063101;28;20104;-64
2022/01/26 19:09:31;;;;;;;5.82;3.38;;;-1.20;99.90;;;;;;5051805;28;20021;-66
2022/01/26 19:11:58;;;;;;;5.45;3.28;;;-1.20;99.90;;;;;;5067235;28;20490;-63
2022/01/26 19:14:29;;;;;;;7.65;3.35;;;-1.20;99.90;;;;;;5057308;28;20325;-64
2022/01/26 19:17:05;;;;;;;6.68;3.58;;;-1.20;99.90;;;;;;5069366;28;20073;-64
2022/01/26 19:27:31;;;;;;;7.53;3.60;;;-1.10;99.90;;;;;;5071074;28;20039;-63
2022/01/26 19:32:48;;;;;;;8.55;3.83;;;-1.10;99.90;;;;;;5053901;28;20369;-65
2022/01/26 19:46:10;;;;;;;7.68;3.55;;;-1.00;99.90;;;;;;5058283;28;20029;-73
2022/01/26 19:51:21;;;;;;;7.63;3.10;;;-1.10;99.90;;;;;;5054897;28;20139;-73
2022/01/26 19:53:47;;;;;;;7.50;2.75;;;-1.20;99.90;;;;;;5055065;28;20032;-74
2022/01/26 19:56:13;;;;;;;5.40;2.58;;;-1.30;99.90;;;;;;5089575;28;20040;-75
2022/01/26 19:58:38;;;;;;;10.03;4.40;;;-1.30;99.90;;;;;;5074094;28;20028;-74
2022/01/26 20:01:05;;;;;;;7.97;3.70;;;-1.40;99.90;;;;;;5073904;28;20036;-74
2022/01/26 20:03:34;;;;;;;7.70;3.20;;;-1.40;99.90;;;;;;5067999;28;20036;-73
2022/01/26 20:06:00;;;;;;;7.30;3.42;;;-1.40;99.90;;;;;;5072406;28;20055;-73
2022/01/26 20:11:06;;;;;;;4.78;2.45;;;-1.40;99.90;;;;;;5074161;28;20044;-75
2022/01/26 20:13:38;;;;;;;5.80;2.40;;;-1.40;99.90;;;;;;5052634;28;20025;-74
2022/01/26 20:16:04;;;;;;;5.75;2.70;;;-1.40;99.90;;;;;;5072813;28;20028;-75